Terminal Aerodrome Forecast
Issued by NWS Wilmington, NC

Home | Current Version | Previous Version | Text Only | Print | Product List | Glossary On
Versions: 1 2 3 4 5 6 7 8 9 10 11 12 13 14
000
FTUS42 KILM 041733
TAFILM
TAF
KILM 041733Z 0418/0518 09006KT P6SM VCSH SCT050 SCT100
     FM050400 02004KT P6SM FEW025
     FM051000 01007KT P6SM SCT006 BKN012
      TEMPO 0512/0515 BKN008
     FM051600 04009KT P6SM VCSH BKN020=

USA.gov is the U.S. government's official web portal to all federal, state and local government web resources and services.